createdAt,value
2019-02-28T00:01:34.889Z,77.90
2019-02-28T00:04:05.731Z,78.60
2019-02-28T00:06:38.106Z,79.10
2019-02-28T00:09:10.346Z,79.30
2019-02-28T00:11:40.214Z,79.50
2019-02-28T00:14:09.495Z,79.80
2019-02-28T00:16:38.713Z,80.10
2019-02-28T00:19:09.654Z,79.90
2019-02-28T00:21:40.560Z,79.60
2019-02-28T00:24:11.036Z,79.30
2019-02-28T00:26:46.318Z,79.20
2019-02-28T00:29:15.784Z,79.10
2019-02-28T00:31:50.181Z,77.80
2019-02-28T00:34:20.801Z,76.60
2019-02-28T00:36:53.406Z,75.70
2019-02-28T00:39:23.456Z,75.00
2019-02-28T00:41:53.434Z,74.50
2019-02-28T00:44:23.098Z,73.80
2019-02-28T00:46:55.246Z,73.70
2019-02-28T00:49:27.602Z,73.40
2019-02-28T00:51:57.411Z,73.30
2019-02-28T00:54:27.843Z,73.20
2019-02-28T00:56:57.789Z,73.00
2019-02-28T00:59:31.718Z,72.60
2019-02-28T01:02:00.554Z,72.20
2019-02-28T01:04:30.899Z,72.10
2019-02-28T01:07:01.908Z,72.00
2019-02-28T01:09:31.791Z,72.10
2019-02-28T01:12:03.351Z,72.30
2019-02-28T01:14:35.810Z,72.30
2019-02-28T01:17:06.360Z,72.30
2019-02-28T01:19:36.529Z,72.10
2019-02-28T01:22:07.642Z,71.90
2019-02-28T01:24:37.387Z,71.90
2019-02-28T01:27:10.281Z,71.90
2019-02-28T01:29:41.098Z,71.70
2019-02-28T01:32:15.682Z,71.70
2019-02-28T01:34:44.963Z,71.70
2019-02-28T01:37:14.873Z,71.70
2019-02-28T01:39:45.401Z,71.80
2019-02-28T01:42:16.297Z,72.00
2019-02-28T01:44:46.561Z,71.90
2019-02-28T01:47:20.005Z,71.80
2019-02-28T01:49:49.375Z,71.90
2019-02-28T01:52:20.320Z,71.80
2019-02-28T01:54:51.191Z,71.70
2019-02-28T01:57:22.034Z,71.60
2019-02-28T01:59:54.054Z,71.60
2019-02-28T02:02:24.982Z,71.70
2019-02-28T02:04:54.245Z,72.00
2019-02-28T02:07:25.340Z,72.20
2019-02-28T02:09:57.590Z,72.20
2019-02-28T02:12:31.197Z,72.30
2019-02-28T02:15:00.655Z,72.30
2019-02-28T02:17:32.273Z,72.50
2019-02-28T02:20:03.811Z,72.80
2019-02-28T02:22:33.158Z,73.00
2019-02-28T02:25:05.506Z,73.30
2019-02-28T02:27:36.551Z,73.60
2019-02-28T02:30:15.066Z,73.60
2019-02-28T02:32:42.496Z,73.30
2019-02-28T02:35:13.785Z,72.90
2019-02-28T02:37:44.619Z,73.00
2019-02-28T02:40:18.020Z,72.90
2019-02-28T02:42:49.715Z,72.70
2019-02-28T02:45:20.408Z,72.60
2019-02-28T02:47:51.348Z,72.60
2019-02-28T02:50:23.983Z,72.40
2019-02-28T02:52:53.871Z,71.90
2019-02-28T02:55:27.773Z,71.20
2019-02-28T02:57:57.354Z,70.70
2019-02-28T03:00:27.123Z,70.50
2019-02-28T03:02:56.383Z,70.30
2019-02-28T03:05:26.226Z,70.30
2019-02-28T03:07:59.450Z,70.30
2019-02-28T03:10:28.171Z,70.30
2019-02-28T03:13:04.923Z,70.50
2019-02-28T03:15:31.807Z,70.70
2019-02-28T03:18:02.643Z,70.60
2019-02-28T03:20:33.686Z,70.70
2019-02-28T03:23:03.297Z,70.80
2019-02-28T03:25:33.443Z,70.70
2019-02-28T03:28:04.681Z,70.90
2019-02-28T03:30:35.895Z,71.00
2019-02-28T03:33:05.877Z,70.90
2019-02-28T03:35:42.962Z,70.70
2019-02-28T03:38:11.677Z,70.50
2019-02-28T03:40:40.238Z,69.70
2019-02-28T03:43:09.718Z,69.50
2019-02-28T03:45:40.981Z,69.20
2019-02-28T03:48:10.878Z,68.80
2019-02-28T03:50:41.849Z,68.50
2019-02-28T03:53:11.724Z,68.30
2019-02-28T03:55:42.674Z,68.50
2019-02-28T03:58:13.139Z,68.40
2019-02-28T04:00:42.504Z,68.30
2019-02-28T04:03:12.635Z,68.60
2019-02-28T04:05:42.280Z,68.90
2019-02-28T04:08:12.221Z,69.00
2019-02-28T04:10:42.012Z,68.70
2019-02-28T04:13:19.210Z,68.40
2019-02-28T04:16:07.418Z,68.20
2019-02-28T04:18:48.579Z,67.70
2019-02-28T04:21:18.286Z,67.50
2019-02-28T04:23:52.697Z,67.50
2019-02-28T04:26:22.727Z,67.50
2019-02-28T04:31:44.692Z,66.50
2019-02-28T04:34:17.021Z,65.80
2019-02-28T04:36:50.095Z,65.30
2019-02-28T04:39:22.714Z,65.20
2019-02-28T04:41:51.019Z,65.00
2019-02-28T04:44:20.908Z,64.80
2019-02-28T04:46:50.711Z,64.60
2019-02-28T04:49:22.671Z,64.30
2019-02-28T04:51:53.913Z,64.30
2019-02-28T04:54:27.923Z,64.40
2019-02-28T04:56:57.595Z,64.40
2019-02-28T04:59:31.607Z,64.50
2019-02-28T05:02:02.787Z,64.70
2019-02-28T05:04:33.225Z,64.90
2019-02-28T05:07:06.426Z,65.00
2019-02-28T05:09:38.762Z,64.80
2019-02-28T05:12:09.487Z,64.70
2019-02-28T05:14:42.605Z,64.60
2019-02-28T05:17:13.570Z,64.70
2019-02-28T05:19:46.439Z,64.70
2019-02-28T05:22:20.654Z,64.50
2019-02-28T05:24:50.538Z,64.60
2019-02-28T05:28:14.767Z,64.80
2019-02-28T05:30:44.098Z,65.10
2019-02-28T05:33:15.059Z,65.20
2019-02-28T05:35:45.932Z,65.10
2019-02-28T05:38:20.635Z,65.30
2019-02-28T05:40:48.194Z,65.70
2019-02-28T05:43:19.730Z,65.70
2019-02-28T05:45:51.188Z,65.70
2019-02-28T05:48:21.096Z,65.70
2019-02-28T05:50:53.315Z,65.40
2019-02-28T05:53:24.666Z,65.50
2019-02-28T05:55:58.827Z,65.30
2019-02-28T05:58:27.633Z,65.40
2019-02-28T06:00:57.507Z,65.30
2019-02-28T06:03:31.577Z,65.30
2019-02-28T06:06:02.729Z,65.00
2019-02-28T06:08:39.199Z,64.90
2019-02-28T06:11:08.389Z,64.70
2019-02-28T06:13:41.355Z,64.80
2019-02-28T06:16:13.860Z,64.20
2019-02-28T06:18:43.707Z,63.70
2019-02-28T06:21:13.635Z,63.90
2019-02-28T06:23:44.663Z,63.40
2019-02-28T06:26:15.567Z,62.90
2019-02-28T06:28:46.567Z,62.70
2019-02-28T06:31:17.590Z,61.90
2019-02-28T06:33:47.444Z,62.20
2019-02-28T06:36:18.337Z,62.00
2019-02-28T06:38:48.333Z,61.60
2019-02-28T06:41:19.261Z,61.70
2019-02-28T06:43:52.869Z,61.60
2019-02-28T06:46:22.687Z,61.90
2019-02-28T06:48:52.520Z,61.40
2019-02-28T06:51:23.440Z,62.20
2019-02-28T06:53:56.522Z,63.00
2019-02-28T06:56:27.486Z,63.30
2019-02-28T06:58:57.358Z,63.60
2019-02-28T07:01:29.478Z,63.30
2019-02-28T07:04:00.975Z,62.90
2019-02-28T07:06:35.630Z,62.60
2019-02-28T07:09:03.512Z,62.80
2019-02-28T07:11:37.823Z,62.50
2019-02-28T07:14:12.919Z,61.50
2019-02-28T07:16:40.359Z,62.40
2019-02-28T07:19:11.154Z,62.10
2019-02-28T07:21:43.921Z,61.40
2019-02-28T07:24:14.611Z,62.10
2019-02-28T07:26:48.265Z,62.50
2019-02-28T07:29:18.451Z,61.50
2019-02-28T07:31:48.180Z,60.80
2019-02-28T07:34:21.914Z,61.30
2019-02-28T07:36:51.693Z,61.20
2019-02-28T07:39:25.584Z,61.40
2019-02-28T07:41:55.435Z,61.60
2019-02-28T07:44:25.302Z,60.40
2019-02-28T07:46:55.145Z,61.00
2019-02-28T07:49:26.010Z,59.60
2019-02-28T07:51:56.964Z,61.00
2019-02-28T07:54:28.508Z,59.50
2019-02-28T07:56:59.589Z,59.10
2019-02-28T07:59:40.971Z,59.40
2019-02-28T08:02:08.601Z,59.10
2019-02-28T08:04:40.807Z,59.60
2019-02-28T08:07:11.435Z,60.00
2019-02-28T08:09:45.302Z,59.30
2019-02-28T08:12:16.252Z,58.80
2019-02-28T08:14:47.029Z,58.90
2019-02-28T08:17:17.751Z,58.70
2019-02-28T08:19:47.731Z,58.30
2019-02-28T08:22:23.219Z,59.40
2019-02-28T08:24:49.832Z,58.00
2019-02-28T08:27:19.689Z,58.30
2019-02-28T08:29:50.548Z,57.00
2019-02-28T08:32:20.469Z,58.30
2019-02-28T08:34:51.489Z,58.00
2019-02-28T08:37:22.696Z,55.30
2019-02-28T08:39:53.735Z,53.20
2019-02-28T08:42:24.798Z,52.00
2019-02-28T08:44:58.975Z,51.50
2019-02-28T08:47:29.196Z,52.00
2019-02-28T08:49:58.948Z,50.40
2019-02-28T08:52:29.882Z,51.20
2019-02-28T08:54:59.680Z,50.20
2019-02-28T08:57:30.732Z,50.40
2019-02-28T09:00:01.625Z,49.60
2019-02-28T09:02:34.119Z,49.80
2019-02-28T09:05:06.662Z,49.40
2019-02-28T09:07:36.838Z,49.90
2019-02-28T09:10:18.456Z,51.00
2019-02-28T09:12:49.618Z,50.40
2019-02-28T09:15:21.456Z,50.20
2019-02-28T09:17:51.420Z,51.00
2019-02-28T09:20:24.467Z,50.90
2019-02-28T09:23:01.797Z,52.10
2019-02-28T09:25:28.826Z,53.90
2019-02-28T09:27:58.652Z,54.60
2019-02-28T09:30:45.939Z,56.50
2019-02-28T09:33:19.241Z,54.80
2019-02-28T09:35:49.745Z,56.50
2019-02-28T09:38:21.943Z,55.70
2019-02-28T09:40:52.787Z,55.30
2019-02-28T09:43:25.867Z,55.10
2019-02-28T09:45:59.033Z,55.30
2019-02-28T09:48:30.680Z,54.20
2019-02-28T09:51:00.452Z,53.60
2019-02-28T09:53:33.438Z,53.70
2019-02-28T09:56:09.335Z,54.80
2019-02-28T09:58:40.311Z,55.50
2019-02-28T10:01:11.498Z,56.20
2019-02-28T10:03:42.566Z,56.80
2019-02-28T10:06:16.186Z,55.30
2019-02-28T10:08:45.051Z,55.00
2019-02-28T10:11:21.695Z,54.90
2019-02-28T10:13:53.171Z,53.70
2019-02-28T10:16:23.999Z,53.10
2019-02-28T10:18:53.748Z,52.60
2019-02-28T10:21:28.030Z,53.00
2019-02-28T10:23:57.940Z,53.10
2019-02-28T10:26:29.315Z,52.10
2019-02-28T10:29:04.428Z,50.90
2019-02-28T10:31:36.411Z,50.80
2019-02-28T10:34:07.566Z,50.50
2019-02-28T10:36:38.770Z,50.90
2019-02-28T10:39:09.723Z,52.00
2019-02-28T10:41:39.671Z,51.70
2019-02-28T10:44:09.611Z,51.80
2019-02-28T10:46:42.429Z,51.30
2019-02-28T10:49:12.194Z,51.10
2019-02-28T10:51:44.611Z,49.20
2019-02-28T10:54:15.395Z,48.90
2019-02-28T10:56:46.463Z,47.50
2019-02-28T10:59:16.556Z,48.10
2019-02-28T11:01:48.054Z,47.10
2019-02-28T11:04:21.006Z,46.50
2019-02-28T11:06:52.126Z,46.30
2019-02-28T11:09:25.377Z,46.60
2019-02-28T11:11:54.651Z,45.80
2019-02-28T11:14:24.701Z,46.00
2019-02-28T11:16:59.078Z,44.70
2019-02-28T11:19:26.644Z,43.80
2019-02-28T11:21:57.519Z,44.20
2019-02-28T11:24:27.408Z,44.40
2019-02-28T11:26:57.379Z,43.70
2019-02-28T11:29:27.399Z,44.00
2019-02-28T11:31:59.022Z,43.90
2019-02-28T11:34:30.009Z,42.70
2019-02-28T11:37:01.027Z,43.40
2019-02-28T11:39:33.662Z,43.70
2019-02-28T11:42:04.919Z,43.50
2019-02-28T11:44:35.944Z,42.20
2019-02-28T11:47:08.408Z,42.50
2019-02-28T11:49:38.077Z,40.90
2019-02-28T11:52:12.334Z,41.70
2019-02-28T11:54:41.730Z,41.90
2019-02-28T11:57:12.837Z,42.70
2019-02-28T11:59:45.250Z,41.70
2019-02-28T12:02:16.267Z,41.10
2019-02-28T12:04:46.444Z,41.20
2019-02-28T12:07:16.243Z,40.90
2019-02-28T12:09:47.409Z,40.10
2019-02-28T12:12:19.946Z,39.70
2019-02-28T12:14:49.990Z,40.30
2019-02-28T12:17:19.756Z,40.00
2019-02-28T12:19:50.758Z,40.00
2019-02-28T12:22:21.178Z,39.70
2019-02-28T12:24:55.270Z,40.10
2019-02-28T12:27:27.461Z,38.90
2019-02-28T12:29:58.009Z,39.20
2019-02-28T12:32:29.180Z,39.60
2019-02-28T12:35:01.487Z,39.40
2019-02-28T12:37:31.480Z,39.40
2019-02-28T12:40:04.051Z,39.60
2019-02-28T12:42:34.589Z,39.70
2019-02-28T12:45:06.746Z,39.40
2019-02-28T12:47:38.694Z,39.30
2019-02-28T12:50:13.278Z,39.80
2019-02-28T12:52:49.027Z,40.10
2019-02-28T12:55:18.144Z,40.00
2019-02-28T12:57:51.771Z,39.50
2019-02-28T13:00:25.409Z,39.80
2019-02-28T13:02:56.454Z,40.00
2019-02-28T13:05:28.080Z,39.70
2019-02-28T13:07:59.415Z,38.50
2019-02-28T13:10:31.123Z,39.30
2019-02-28T13:13:06.653Z,39.70
2019-02-28T13:15:36.302Z,40.40
2019-02-28T13:18:09.373Z,40.80
2019-02-28T13:20:41.056Z,40.80
2019-02-28T13:23:11.063Z,40.80
2019-02-28T13:25:42.182Z,41.20
2019-02-28T13:28:13.129Z,42.10
2019-02-28T13:30:48.969Z,41.40
2019-02-28T13:33:16.208Z,40.30
2019-02-28T13:35:47.595Z,40.70
2019-02-28T13:38:19.321Z,40.90
2019-02-28T13:40:50.449Z,41.10
2019-02-28T13:43:22.289Z,41.30
2019-02-28T13:45:55.670Z,41.50
2019-02-28T13:48:26.491Z,40.90
2019-02-28T13:50:59.404Z,40.80
2019-02-28T13:53:30.517Z,41.60
2019-02-28T13:56:05.009Z,42.00
2019-02-28T13:58:35.037Z,41.90
2019-02-28T14:01:07.159Z,42.30
2019-02-28T14:03:37.095Z,42.70
2019-02-28T14:06:07.088Z,41.80
2019-02-28T14:08:38.372Z,42.60
2019-02-28T14:11:10.327Z,42.60
2019-02-28T14:13:41.969Z,42.50
2019-02-28T14:16:15.189Z,42.60
2019-02-28T14:18:46.768Z,42.90
2019-02-28T14:21:17.723Z,43.60
2019-02-28T14:23:52.495Z,44.10
2019-02-28T14:26:25.946Z,44.20
2019-02-28T14:28:58.520Z,44.40
2019-02-28T14:31:29.571Z,44.60
2019-02-28T14:34:01.984Z,45.00
2019-02-28T14:36:33.682Z,45.10
2019-02-28T14:39:04.747Z,44.10
2019-02-28T14:41:35.521Z,44.30
2019-02-28T14:44:08.438Z,44.90
2019-02-28T14:46:40.733Z,45.60
2019-02-28T14:49:13.999Z,46.00
2019-02-28T14:51:46.385Z,45.90
2019-02-28T14:54:17.625Z,45.80
2019-02-28T14:56:48.506Z,45.60
2019-02-28T14:59:18.319Z,46.00
2019-02-28T15:01:49.556Z,46.30
2019-02-28T15:04:22.431Z,47.00
2019-02-28T15:06:53.594Z,48.10
2019-02-28T15:09:27.099Z,49.50
2019-02-28T15:11:59.971Z,50.80
2019-02-28T15:14:31.045Z,52.30
2019-02-28T15:17:06.615Z,53.30
2019-02-28T15:19:34.052Z,53.70
2019-02-28T15:22:08.311Z,54.70
2019-02-28T15:24:40.519Z,54.50
2019-02-28T15:27:13.436Z,55.20
2019-02-28T15:29:45.783Z,55.80
2019-02-28T15:32:17.093Z,56.00
2019-02-28T15:34:47.178Z,55.60
2019-02-28T15:37:18.176Z,56.00
2019-02-28T15:39:49.825Z,56.70
2019-02-28T15:42:20.619Z,57.20
2019-02-28T15:44:50.497Z,57.40
2019-02-28T15:47:23.119Z,57.30
2019-02-28T15:49:54.312Z,57.60
2019-02-28T15:52:25.581Z,58.00
2019-02-28T15:54:56.897Z,58.20
2019-02-28T15:57:30.142Z,58.40
2019-02-28T16:00:00.634Z,58.80
2019-02-28T16:02:30.542Z,58.90
2019-02-28T16:05:05.213Z,58.90
2019-02-28T16:07:35.717Z,59.40
2019-02-28T16:10:08.911Z,59.80
2019-02-28T16:12:38.852Z,60.10
2019-02-28T16:15:12.641Z,59.80
2019-02-28T16:17:42.033Z,60.30
2019-02-28T16:20:15.668Z,60.50
2019-02-28T16:22:52.089Z,60.60
2019-02-28T16:25:34.123Z,61.00
2019-02-28T16:28:04.376Z,61.10
2019-02-28T16:30:35.616Z,61.00
2019-02-28T16:33:07.567Z,61.60
2019-02-28T16:35:40.368Z,61.70
2019-02-28T16:38:11.261Z,62.00
2019-02-28T16:40:42.650Z,62.10
2019-02-28T16:43:13.862Z,62.30
2019-02-28T16:45:50.935Z,62.30
2019-02-28T16:48:23.031Z,62.50
2019-02-28T16:50:53.679Z,62.80
2019-02-28T16:53:25.425Z,63.20
2019-02-28T16:55:56.725Z,63.20
2019-02-28T16:58:29.023Z,63.30
2019-02-28T17:01:01.127Z,63.50
2019-02-28T17:03:33.322Z,63.70
2019-02-28T17:06:03.784Z,63.70
2019-02-28T17:08:36.172Z,64.10
2019-02-28T17:11:09.164Z,63.80
2019-02-28T17:13:41.566Z,64.10
2019-02-28T17:16:33.678Z,63.90
2019-02-28T17:19:05.038Z,64.20
2019-02-28T17:21:37.431Z,64.30
2019-02-28T17:24:08.606Z,64.50
2019-02-28T17:26:57.665Z,64.70
2019-02-28T17:29:31.354Z,64.70
2019-02-28T17:32:02.146Z,64.80
2019-02-28T17:34:33.047Z,64.90
2019-02-28T17:37:03.807Z,65.00
2019-02-28T17:39:34.001Z,65.30
2019-02-28T17:42:08.651Z,65.40
2019-02-28T17:44:44.635Z,65.40
2019-02-28T17:47:36.688Z,65.30
2019-02-28T17:50:15.088Z,65.50
2019-02-28T17:52:53.508Z,65.60
2019-02-28T17:55:37.367Z,65.90
2019-02-28T17:58:19.772Z,65.80
2019-02-28T18:01:20.750Z,65.90
2019-02-28T18:04:24.062Z,66.20
2019-02-28T18:07:20.030Z,65.90
2019-02-28T18:09:55.079Z,66.00
2019-02-28T18:13:00.595Z,66.30
2019-02-28T18:15:36.472Z,66.40
2019-02-28T18:18:18.043Z,66.50
2019-02-28T18:20:54.056Z,66.70
2019-02-28T18:23:44.582Z,67.20
2019-02-28T18:26:39.325Z,67.30
2019-02-28T18:29:24.297Z,67.50
2019-02-28T18:31:57.064Z,67.60
2019-02-28T18:34:28.201Z,67.60
2019-02-28T18:36:58.995Z,67.70
2019-02-28T18:39:49.333Z,67.80
2019-02-28T18:42:20.596Z,68.00
2019-02-28T18:44:51.422Z,68.30
2019-02-28T18:47:22.749Z,68.60
2019-02-28T18:49:52.628Z,68.70
2019-02-28T18:52:24.025Z,68.70
2019-02-28T18:54:55.000Z,68.70
2019-02-28T18:57:26.295Z,69.00
2019-02-28T18:59:56.562Z,69.20
2019-02-28T19:02:27.472Z,69.20
2019-02-28T19:04:57.263Z,69.30
2019-02-28T19:07:28.591Z,69.60
2019-02-28T19:09:59.697Z,69.60
2019-02-28T19:12:30.592Z,69.80
2019-02-28T19:15:00.370Z,69.90
2019-02-28T19:17:30.971Z,70.00
2019-02-28T19:20:00.915Z,70.20
2019-02-28T19:22:33.144Z,70.40
2019-02-28T19:25:04.055Z,70.60
2019-02-28T19:27:39.410Z,70.60
2019-02-28T19:30:17.850Z,70.70
2019-02-28T19:32:48.717Z,70.80
2019-02-28T19:35:20.890Z,71.00
2019-02-28T19:37:53.610Z,70.90
2019-02-28T19:40:23.474Z,70.90
2019-02-28T19:42:54.360Z,71.00
2019-02-28T19:45:38.715Z,71.00
2019-02-28T19:48:08.615Z,71.20
2019-02-28T19:50:39.096Z,71.20
2019-02-28T19:53:11.276Z,71.10
2019-02-28T19:55:42.397Z,71.00
2019-02-28T19:58:13.309Z,71.20
2019-02-28T20:00:42.751Z,71.20
2019-02-28T20:03:13.687Z,71.00
2019-02-28T20:05:44.868Z,70.90
2019-02-28T20:08:19.352Z,70.60
2019-02-28T20:10:51.493Z,70.50
2019-02-28T20:13:21.334Z,70.40
2019-02-28T20:15:53.628Z,70.40
2019-02-28T20:18:24.901Z,70.40
2019-02-28T20:20:54.947Z,70.50
2019-02-28T20:23:26.050Z,70.50
2019-02-28T20:25:56.068Z,70.20
2019-02-28T20:28:27.125Z,70.50
2019-02-28T20:30:58.189Z,70.60
2019-02-28T20:33:30.974Z,70.60
2019-02-28T20:36:00.757Z,70.80
2019-02-28T20:38:31.699Z,70.90
2019-02-28T20:41:04.738Z,71.10
2019-02-28T20:43:38.891Z,71.10
2019-02-28T20:46:09.209Z,71.20
2019-02-28T20:48:42.494Z,71.20
2019-02-28T20:51:12.522Z,71.30
2019-02-28T20:53:41.774Z,71.60
2019-02-28T20:56:12.664Z,71.90
2019-02-28T20:58:47.177Z,72.10
2019-02-28T21:01:17.024Z,72.20
2019-02-28T21:03:49.827Z,72.50
2019-02-28T21:06:24.052Z,72.60
2019-02-28T21:08:54.938Z,72.60
2019-02-28T21:11:24.380Z,72.60
2019-02-28T21:13:56.619Z,72.70
2019-02-28T21:16:26.865Z,72.80
2019-02-28T21:18:59.229Z,73.00
2019-02-28T21:21:29.176Z,73.00
2019-02-28T21:24:00.193Z,73.00
2019-02-28T21:26:32.223Z,73.30
2019-02-28T21:29:01.906Z,73.20
2019-02-28T21:31:34.227Z,73.30
2019-02-28T21:34:05.225Z,73.30
2019-02-28T21:36:37.528Z,73.60
2019-02-28T21:39:08.959Z,73.80
2019-02-28T21:41:42.284Z,74.00
2019-02-28T21:44:12.150Z,74.10
2019-02-28T21:46:43.003Z,74.30
2019-02-28T21:49:12.921Z,74.60
2019-02-28T21:51:43.934Z,74.60
2019-02-28T21:54:16.190Z,75.00
2019-02-28T21:56:46.018Z,75.20
2019-02-28T21:59:19.098Z,75.20
2019-02-28T22:01:48.969Z,75.40
2019-02-28T22:04:21.816Z,75.40
2019-02-28T22:06:53.888Z,75.40
2019-02-28T22:09:24.965Z,75.50
2019-02-28T22:11:54.953Z,75.40
2019-02-28T22:14:25.120Z,75.40
2019-02-28T22:20:01.749Z,75.30
2019-02-28T22:22:32.815Z,75.30
2019-02-28T22:25:03.798Z,75.60
2019-02-28T22:33:45.306Z,76.00
2019-02-28T22:36:17.695Z,76.30
2019-02-28T22:38:48.773Z,76.10
2019-02-28T22:41:19.919Z,75.90
2019-02-28T22:43:50.944Z,76.10
2019-02-28T22:46:25.267Z,76.20
2019-02-28T22:48:56.568Z,76.30
2019-02-28T22:51:31.009Z,76.30
2019-02-28T22:54:03.921Z,76.40
2019-02-28T22:56:34.862Z,76.20
2019-02-28T22:59:06.981Z,76.30
2019-02-28T23:01:37.397Z,76.40
2019-02-28T23:04:08.573Z,76.20
2019-02-28T23:06:39.607Z,76.30
2019-02-28T23:09:09.887Z,76.70
2019-02-28T23:11:40.884Z,76.60
2019-02-28T23:14:11.926Z,76.30
2019-02-28T23:16:44.318Z,76.50
2019-02-28T23:19:15.192Z,76.40
2019-02-28T23:21:45.164Z,76.30
2019-02-28T23:24:17.245Z,76.40
2019-02-28T23:27:12.447Z,76.60
2019-02-28T23:29:50.422Z,76.70
2019-02-28T23:32:39.827Z,77.20
2019-02-28T23:35:16.743Z,77.50
2019-02-28T23:37:47.852Z,77.80
2019-02-28T23:40:17.206Z,78.10
2019-02-28T23:42:49.434Z,78.20
2019-02-28T23:45:19.314Z,78.30
2019-02-28T23:47:52.543Z,78.60
2019-02-28T23:50:23.584Z,78.70
2019-02-28T23:52:54.166Z,78.80
2019-02-28T23:55:28.364Z,79.00
2019-02-28T23:57:59.333Z,78.60
